createdAt,value
2023-02-14T00:02:54.795Z,7.80
2023-02-14T00:07:57.278Z,7.07
2023-02-14T00:12:59.700Z,7.20
2023-02-14T00:18:03.201Z,7.50
2023-02-14T00:23:05.837Z,7.03
2023-02-14T00:28:08.260Z,6.87
2023-02-14T00:33:10.873Z,7.00
2023-02-14T00:38:13.787Z,7.60
2023-02-14T00:43:16.280Z,7.23
2023-02-14T00:48:19.043Z,6.87
2023-02-14T00:53:21.590Z,7.83
2023-02-14T00:58:25.701Z,7.33
2023-02-14T01:03:29.942Z,7.70
2023-02-14T01:08:33.243Z,6.97
2023-02-14T01:13:35.733Z,6.83
2023-02-14T01:18:38.911Z,7.70
2023-02-14T01:23:41.782Z,6.70
2023-02-14T01:28:44.918Z,7.03
2023-02-14T01:33:49.540Z,7.50
2023-02-14T01:38:57.464Z,7.60
2023-02-14T01:44:27.126Z,6.80
2023-02-14T01:49:38.383Z,7.03
2023-02-14T01:54:46.227Z,7.20
2023-02-14T02:00:17.714Z,7.33
2023-02-14T02:05:23.902Z,7.13
2023-02-14T02:10:26.432Z,7.13
2023-02-14T02:15:34.538Z,7.87
2023-02-14T02:21:23.794Z,7.13
2023-02-14T02:26:48.199Z,7.63
2023-02-14T02:32:24.459Z,8.53
2023-02-14T02:37:43.036Z,6.93
2023-02-14T02:43:15.753Z,7.13
2023-02-14T02:48:23.713Z,7.10
2023-02-14T02:53:31.822Z,7.47
2023-02-14T02:58:38.020Z,7.03
2023-02-14T03:04:02.803Z,7.10
2023-02-14T03:09:36.113Z,6.83
2023-02-14T03:15:17.491Z,7.77
2023-02-14T03:20:35.474Z,7.03
2023-02-14T03:25:50.238Z,7.53
2023-02-14T03:31:04.843Z,7.60
2023-02-14T03:36:20.535Z,7.47
2023-02-14T03:41:28.691Z,7.03
2023-02-14T03:46:38.466Z,7.43
2023-02-14T03:51:46.048Z,7.67
2023-02-14T03:56:57.800Z,6.77
2023-02-14T04:02:31.231Z,6.90
2023-02-14T04:07:46.200Z,6.67
2023-02-14T04:12:49.477Z,7.83
2023-02-14T04:18:10.862Z,8.27
2023-02-14T04:23:13.329Z,8.40
2023-02-14T04:28:16.029Z,9.47
2023-02-14T04:33:18.642Z,9.13
2023-02-14T04:38:21.402Z,9.00
2023-02-14T04:43:23.854Z,8.80
2023-02-14T04:48:26.507Z,9.13
2023-02-14T04:53:28.942Z,9.53
2023-02-14T04:58:31.346Z,9.20
2023-02-14T05:03:33.843Z,9.20
2023-02-14T05:08:36.275Z,8.87
2023-02-14T05:13:38.701Z,8.87
2023-02-14T05:18:41.088Z,9.50
2023-02-14T05:23:43.507Z,9.17
2023-02-14T05:28:45.858Z,9.20
2023-02-14T05:33:48.725Z,8.53
2023-02-14T05:38:51.199Z,9.77
2023-02-14T05:43:53.597Z,10.13
2023-02-14T05:48:56.007Z,9.03
2023-02-14T05:54:00.214Z,10.10
2023-02-14T05:59:02.673Z,8.37
2023-02-14T06:04:05.113Z,8.97
2023-02-14T06:09:07.741Z,9.67
2023-02-14T06:14:10.379Z,9.70
2023-02-14T06:19:13.011Z,9.37
2023-02-14T06:24:15.590Z,9.20
2023-02-14T06:29:18.403Z,9.33
2023-02-14T06:34:21.103Z,9.30
2023-02-14T06:39:23.601Z,8.93
2023-02-14T06:44:26.268Z,8.63
2023-02-14T06:49:28.838Z,9.17
2023-02-14T06:54:31.322Z,9.50
2023-02-14T06:59:33.681Z,9.27
2023-02-14T07:04:36.084Z,9.50
2023-02-14T07:09:38.581Z,9.53
2023-02-14T07:14:41.287Z,9.03
2023-02-14T07:19:43.711Z,9.23
2023-02-14T07:24:46.128Z,9.27
2023-02-14T07:29:48.835Z,9.33
2023-02-14T07:34:52.156Z,9.37
2023-02-14T07:39:54.653Z,9.67
2023-02-14T07:44:57.251Z,9.43
2023-02-14T07:49:59.700Z,9.17
2023-02-14T07:55:02.236Z,10.03
2023-02-14T08:00:06.407Z,10.07
2023-02-14T08:05:15.062Z,9.57
2023-02-14T08:10:18.168Z,9.73
2023-02-14T08:15:39.350Z,9.80
2023-02-14T08:20:41.850Z,9.40
2023-02-14T08:25:44.270Z,9.63
2023-02-14T08:30:47.509Z,9.50
2023-02-14T08:35:51.369Z,9.87
2023-02-14T08:41:03.830Z,10.40
2023-02-14T08:46:07.615Z,10.23
2023-02-14T08:51:30.990Z,10.30
2023-02-14T08:56:33.491Z,10.13
2023-02-14T09:01:37.202Z,10.50
2023-02-14T09:06:40.157Z,10.17
2023-02-14T09:11:42.608Z,10.90
2023-02-14T09:16:45.077Z,10.00
2023-02-14T09:21:47.629Z,8.60
2023-02-14T09:26:50.515Z,10.80
2023-02-14T09:31:54.464Z,9.97
2023-02-14T09:37:15.792Z,11.27
2023-02-14T09:42:27.387Z,11.03
2023-02-14T09:47:45.838Z,9.83
2023-02-14T09:52:52.475Z,10.83
2023-02-14T09:58:17.790Z,10.60
2023-02-14T10:03:59.949Z,10.40
2023-02-14T10:09:32.947Z,11.40
2023-02-14T10:14:40.861Z,11.43
2023-02-14T10:19:57.868Z,11.33
2023-02-14T10:25:06.090Z,11.23
2023-02-14T10:30:19.281Z,11.73
2023-02-14T10:35:27.666Z,12.07
2023-02-14T10:40:38.960Z,9.13
2023-02-14T10:45:46.297Z,9.87
2023-02-14T10:51:19.171Z,11.13
2023-02-14T10:56:32.341Z,11.23
2023-02-14T11:01:35.151Z,10.67
2023-02-14T11:06:37.587Z,11.20
2023-02-14T11:11:52.518Z,10.67
2023-02-14T11:16:56.577Z,11.20
2023-02-14T11:22:00.535Z,10.90
2023-02-14T11:27:10.632Z,10.50
2023-02-14T11:32:23.302Z,10.87
2023-02-14T11:37:34.461Z,10.67
2023-02-14T11:42:45.428Z,11.27
2023-02-14T11:47:47.599Z,11.47
2023-02-14T11:52:57.172Z,8.20
2023-02-14T11:58:03.262Z,11.57
2023-02-14T12:03:06.986Z,10.83
2023-02-14T12:08:10.296Z,9.57
2023-02-14T12:13:12.252Z,11.47
2023-02-14T12:18:23.439Z,11.20
2023-02-14T12:23:42.099Z,12.40
2023-02-14T12:29:14.058Z,11.43
2023-02-14T12:34:19.045Z,10.80
2023-02-14T12:40:02.380Z,11.40
2023-02-14T12:45:22.565Z,11.20
2023-02-14T12:50:46.566Z,8.67
2023-02-14T12:56:10.829Z,10.57
2023-02-14T13:01:59.648Z,11.00
2023-02-14T13:07:26.135Z,10.47
2023-02-14T13:12:59.084Z,10.57
2023-02-14T13:18:18.624Z,10.60
2023-02-14T13:23:47.979Z,11.57
2023-02-14T13:28:57.709Z,10.57
2023-02-14T13:34:22.553Z,9.70
2023-02-14T13:39:39.115Z,11.27
2023-02-14T13:44:50.237Z,11.37
2023-02-14T13:50:02.177Z,11.57
2023-02-14T13:55:09.403Z,11.23
2023-02-14T14:00:22.257Z,11.50
2023-02-14T14:05:30.639Z,10.70
2023-02-14T14:10:55.698Z,10.33
2023-02-14T14:16:19.966Z,10.73
2023-02-14T14:21:29.599Z,11.10
2023-02-14T14:26:37.709Z,11.30
2023-02-14T14:31:41.808Z,10.13
2023-02-14T14:36:44.466Z,9.40
2023-02-14T14:41:47.455Z,11.40
2023-02-14T14:46:50.842Z,11.50
2023-02-14T14:51:53.575Z,10.60
2023-02-14T14:57:03.696Z,11.80
2023-02-14T15:02:30.480Z,10.20
2023-02-14T15:07:34.881Z,10.97
2023-02-14T15:12:56.166Z,10.90
2023-02-14T15:17:58.720Z,11.30
2023-02-14T15:23:03.038Z,11.63
2023-02-14T15:28:05.547Z,11.57
2023-02-14T15:33:10.785Z,11.03
2023-02-14T15:38:14.571Z,12.13
2023-02-14T15:43:22.040Z,10.97
2023-02-14T15:48:34.765Z,9.90
2023-02-14T15:53:53.684Z,12.07
2023-02-14T15:59:17.976Z,10.60
2023-02-14T16:04:26.912Z,11.47
2023-02-14T16:09:31.963Z,11.70
2023-02-14T16:14:36.573Z,10.90
2023-02-14T16:19:48.416Z,9.93
2023-02-14T16:24:51.056Z,12.03
2023-02-14T16:29:53.418Z,10.50
2023-02-14T16:34:55.438Z,10.93
2023-02-14T16:39:59.906Z,10.80
2023-02-14T16:45:02.160Z,11.63
2023-02-14T16:50:04.311Z,11.50
2023-02-14T16:55:15.342Z,11.43
2023-02-14T17:00:17.976Z,11.67
2023-02-14T17:05:20.469Z,12.03
2023-02-14T17:10:22.694Z,11.27
2023-02-14T17:15:27.380Z,10.63
2023-02-14T17:20:31.109Z,12.23
2023-02-14T17:25:33.216Z,12.17
2023-02-14T17:30:38.284Z,10.97
2023-02-14T17:35:40.332Z,11.03
2023-02-14T17:40:42.618Z,11.13
2023-02-14T17:45:44.672Z,10.90
2023-02-14T17:50:46.705Z,10.13
2023-02-14T17:55:49.398Z,9.87
2023-02-14T18:00:51.869Z,10.37
2023-02-14T18:06:00.864Z,9.03
2023-02-14T18:11:11.507Z,11.10
2023-02-14T18:16:19.444Z,10.87
2023-02-14T18:21:24.543Z,11.63
2023-02-14T18:26:27.020Z,10.17
2023-02-14T18:31:29.396Z,9.57
2023-02-14T18:36:32.388Z,10.00
2023-02-14T18:41:35.430Z,8.47
2023-02-14T18:46:37.705Z,11.10
2023-02-14T18:51:39.848Z,8.97
2023-02-14T18:56:42.162Z,10.50
2023-02-14T19:01:45.804Z,11.50
2023-02-14T19:06:49.585Z,11.33
2023-02-14T19:11:51.949Z,11.80
2023-02-14T19:16:55.465Z,12.50
2023-02-14T19:22:01.562Z,11.00
2023-02-14T19:27:03.872Z,9.83
2023-02-14T19:32:06.257Z,11.67
2023-02-14T19:37:08.555Z,11.83
2023-02-14T19:42:10.676Z,11.63
2023-02-14T19:47:27.180Z,9.83
2023-02-14T19:52:33.233Z,11.43
2023-02-14T19:57:35.244Z,11.67
2023-02-14T20:02:37.314Z,12.47
2023-02-14T20:07:39.336Z,13.67
2023-02-14T20:12:41.807Z,10.70
2023-02-14T20:17:43.909Z,12.73
2023-02-14T20:22:45.927Z,15.43
2023-02-14T20:27:48.031Z,13.17
2023-02-14T20:32:51.783Z,10.53
2023-02-14T20:37:55.075Z,10.33
2023-02-14T20:42:57.060Z,11.43
2023-02-14T20:48:03.375Z,12.23
2023-02-14T20:53:05.465Z,11.33
2023-02-14T20:58:08.035Z,10.93
2023-02-14T21:03:10.257Z,11.77
2023-02-14T21:08:12.266Z,9.53
2023-02-14T21:13:14.343Z,10.80
2023-02-14T21:18:16.816Z,10.93
2023-02-14T21:23:19.058Z,9.07
2023-02-14T21:28:21.351Z,12.13
2023-02-14T21:33:25.428Z,10.70
2023-02-14T21:38:28.429Z,11.70
2023-02-14T21:43:35.719Z,11.90
2023-02-14T21:48:58.805Z,10.83
2023-02-14T21:54:00.948Z,12.90
2023-02-14T21:59:03.206Z,11.70
2023-02-14T22:04:09.219Z,11.97
2023-02-14T22:09:17.592Z,10.47
2023-02-14T22:14:20.021Z,11.07
2023-02-14T22:19:22.993Z,10.60
2023-02-14T22:24:25.482Z,11.03
2023-02-14T22:29:29.103Z,11.37
2023-02-14T22:34:31.519Z,9.60
2023-02-14T22:39:33.606Z,10.33
2023-02-14T22:44:35.685Z,11.33
2023-02-14T22:49:37.839Z,10.93
2023-02-14T22:54:40.219Z,10.50
2023-02-14T22:59:42.529Z,10.87
2023-02-14T23:04:44.838Z,9.50
2023-02-14T23:09:48.655Z,12.90
2023-02-14T23:15:10.197Z,10.67
2023-02-14T23:20:31.295Z,11.97
2023-02-14T23:25:33.706Z,9.43
2023-02-14T23:30:36.380Z,9.73
2023-02-14T23:35:38.814Z,10.50
2023-02-14T23:40:59.983Z,10.73
2023-02-14T23:46:02.871Z,11.37
2023-02-14T23:51:05.453Z,10.80
2023-02-14T23:56:08.089Z,10.20
